createdAt,value
2019-05-29T00:00:44.393Z,9.20
2019-05-29T00:03:14.472Z,8.17
2019-05-29T00:05:44.166Z,9.90
2019-05-29T00:08:14.692Z,9.27
2019-05-29T00:10:44.599Z,8.90
2019-05-29T00:13:14.504Z,9.43
2019-05-29T00:15:44.040Z,9.27
2019-05-29T00:18:14.561Z,9.83
2019-05-29T00:20:44.189Z,10.27
2019-05-29T00:23:14.682Z,9.50
2019-05-29T00:25:44.499Z,9.33
2019-05-29T00:28:14.854Z,9.73
2019-05-29T00:30:44.558Z,10.70
2019-05-29T00:33:14.465Z,10.20
2019-05-29T00:35:44.096Z,10.30
2019-05-29T00:38:14.826Z,10.30
2019-05-29T00:40:44.452Z,11.40
2019-05-29T00:43:15.328Z,10.63
2019-05-29T00:45:45.170Z,9.90
2019-05-29T00:48:15.918Z,10.50
2019-05-29T00:50:45.605Z,10.23
2019-05-29T00:53:16.399Z,10.63
2019-05-29T00:55:45.981Z,11.57
2019-05-29T00:58:15.560Z,11.20
2019-05-29T01:00:45.073Z,11.50
2019-05-29T01:03:15.871Z,10.57
2019-05-29T01:05:45.535Z,11.93
2019-05-29T01:08:16.360Z,10.60
2019-05-29T01:10:45.978Z,11.30
2019-05-29T01:13:15.479Z,11.40
2019-05-29T01:15:45.005Z,10.47
2019-05-29T01:18:15.694Z,11.57
2019-05-29T01:20:45.278Z,11.70
2019-05-29T01:23:14.794Z,11.20
2019-05-29T01:25:44.306Z,10.90
2019-05-29T01:28:14.699Z,12.40
2019-05-29T01:30:44.236Z,10.27
2019-05-29T01:33:16.841Z,11.20
2019-05-29T01:35:44.981Z,11.20
2019-05-29T01:38:15.183Z,10.53
2019-05-29T01:40:45.129Z,11.57
2019-05-29T01:43:15.340Z,11.47
2019-05-29T01:45:44.899Z,12.00
2019-05-29T01:48:15.401Z,11.03
2019-05-29T01:50:44.909Z,11.33
2019-05-29T01:53:15.503Z,12.50
2019-05-29T01:55:45.118Z,11.30
2019-05-29T01:58:15.620Z,12.40
2019-05-29T02:00:45.189Z,11.50
2019-05-29T02:03:15.780Z,11.43
2019-05-29T02:05:45.322Z,13.50
2019-05-29T02:08:15.881Z,10.93
2019-05-29T02:10:45.520Z,12.00
2019-05-29T02:13:15.214Z,12.20
2019-05-29T02:15:44.926Z,10.40
2019-05-29T02:18:14.485Z,11.50
2019-05-29T02:20:44.111Z,11.80
2019-05-29T02:23:13.749Z,11.83
2019-05-29T02:25:43.250Z,11.37
2019-05-29T02:28:12.825Z,11.63
2019-05-29T02:30:42.376Z,10.77
2019-05-29T02:33:11.918Z,12.27
2019-05-29T02:35:41.421Z,11.40
2019-05-29T02:38:11.082Z,11.40
2019-05-29T02:40:40.570Z,12.60
2019-05-29T02:43:10.154Z,12.80
2019-05-29T02:45:53.853Z,13.13
2019-05-29T02:48:10.893Z,11.13
2019-05-29T02:50:40.484Z,12.43
2019-05-29T02:53:09.973Z,11.80
2019-05-29T02:55:39.494Z,10.57
2019-05-29T02:58:09.006Z,11.67
2019-05-29T03:00:52.927Z,11.60
2019-05-29T03:03:23.872Z,11.20
2019-05-29T03:05:55.186Z,10.70
2019-05-29T03:08:26.339Z,11.93
2019-05-29T03:10:55.934Z,12.37
2019-05-29T03:13:27.438Z,11.30
2019-05-29T03:16:10.501Z,12.00
2019-05-29T03:18:30.413Z,12.17
2019-05-29T03:21:03.803Z,12.13
2019-05-29T03:23:35.673Z,11.70
2019-05-29T03:26:04.587Z,11.90
2019-05-29T03:28:35.124Z,12.43
2019-05-29T03:31:04.935Z,13.00
2019-05-29T03:33:41.025Z,13.93
2019-05-29T03:36:06.018Z,14.03
2019-05-29T03:38:35.555Z,13.57
2019-05-29T03:41:05.220Z,16.37
2019-05-29T03:43:36.054Z,13.60
2019-05-29T03:46:05.997Z,13.17
2019-05-29T03:48:35.536Z,11.80
2019-05-29T03:51:05.172Z,11.93
2019-05-29T03:53:36.670Z,13.50
2019-05-29T03:56:05.927Z,13.53
2019-05-29T03:58:37.523Z,14.60
2019-05-29T04:01:06.780Z,13.50
2019-05-29T04:03:38.074Z,14.27
2019-05-29T04:06:07.996Z,14.60
2019-05-29T04:08:38.347Z,15.43
2019-05-29T04:11:08.305Z,14.00
2019-05-29T04:13:39.250Z,13.43
2019-05-29T04:16:09.981Z,15.60
2019-05-29T04:18:41.267Z,13.53
2019-05-29T04:21:11.610Z,13.83
2019-05-29T04:23:42.874Z,13.37
2019-05-29T04:26:15.678Z,13.20
2019-05-29T04:28:45.644Z,15.97
2019-05-29T04:31:15.296Z,14.67
2019-05-29T04:33:44.910Z,14.20
2019-05-29T04:36:14.502Z,14.60
2019-05-29T04:38:44.977Z,14.50
2019-05-29T04:41:14.491Z,14.10
2019-05-29T04:43:44.270Z,16.60
2019-05-29T04:46:13.856Z,17.13
2019-05-29T04:48:43.416Z,16.93
2019-05-29T04:51:12.961Z,15.07
2019-05-29T04:53:42.462Z,10.77
2019-05-29T04:56:12.354Z,13.27
2019-05-29T04:58:41.843Z,10.37
2019-05-29T05:01:11.349Z,11.17
2019-05-29T05:03:40.905Z,10.77
2019-05-29T05:06:10.506Z,10.23
2019-05-29T05:08:40.263Z,9.37
2019-05-29T05:11:10.699Z,8.80
2019-05-29T05:13:40.248Z,9.00
2019-05-29T05:16:09.759Z,8.47
2019-05-29T05:18:40.211Z,8.13
2019-05-29T05:21:10.078Z,8.47
2019-05-29T05:23:40.536Z,7.73
2019-05-29T05:26:10.347Z,7.40
2019-05-29T05:28:43.875Z,7.60
2019-05-29T05:31:11.248Z,8.73
2019-05-29T05:33:41.081Z,6.57
2019-05-29T05:36:10.853Z,6.80
2019-05-29T05:38:41.143Z,7.23
2019-05-29T05:41:10.954Z,7.13
2019-05-29T05:43:41.349Z,6.20
2019-05-29T05:46:11.358Z,6.27
2019-05-29T05:48:41.602Z,6.27
2019-05-29T05:51:11.283Z,6.33
2019-05-29T05:53:41.802Z,5.80
2019-05-29T05:56:12.576Z,6.60
2019-05-29T05:58:42.458Z,6.10
2019-05-29T06:01:12.591Z,5.83
2019-05-29T06:03:42.669Z,5.90
2019-05-29T06:06:12.420Z,5.70
2019-05-29T06:08:42.619Z,4.90
2019-05-29T06:11:12.325Z,5.70
2019-05-29T06:13:42.787Z,5.33
2019-05-29T06:16:12.556Z,5.10
2019-05-29T06:18:42.977Z,5.17
2019-05-29T06:21:12.850Z,4.80
2019-05-29T06:23:43.567Z,4.43
2019-05-29T06:26:13.667Z,4.20
2019-05-29T06:28:43.653Z,4.70
2019-05-29T06:31:13.197Z,4.37
2019-05-29T06:33:43.973Z,4.20
2019-05-29T06:36:13.664Z,3.93
2019-05-29T06:38:44.261Z,3.50
2019-05-29T06:41:14.393Z,3.70
2019-05-29T06:43:44.404Z,4.10
2019-05-29T06:46:14.301Z,3.93
2019-05-29T06:48:56.419Z,3.30
2019-05-29T06:51:15.133Z,3.70
2019-05-29T06:53:44.679Z,4.03
2019-05-29T06:56:14.665Z,5.37
2019-05-29T06:58:44.785Z,3.60
2019-05-29T07:01:14.378Z,4.13
2019-05-29T07:03:44.147Z,3.50
2019-05-29T07:06:13.775Z,3.07
2019-05-29T07:08:47.704Z,3.30
2019-05-29T07:11:14.590Z,3.00
2019-05-29T07:13:47.632Z,3.50
2019-05-29T07:16:16.578Z,3.37
2019-05-29T07:19:23.311Z,3.00
2019-05-29T07:21:17.268Z,3.47
2019-05-29T07:23:48.661Z,3.17
2019-05-29T07:26:18.229Z,3.57
2019-05-29T07:29:07.111Z,3.57
2019-05-29T07:31:19.112Z,3.33
2019-05-29T07:33:48.819Z,3.73
2019-05-29T07:36:18.318Z,3.60
2019-05-29T07:39:02.301Z,3.77
2019-05-29T07:41:19.339Z,3.40
2019-05-29T07:43:48.972Z,2.93
2019-05-29T07:46:18.573Z,3.63
2019-05-29T07:48:50.243Z,3.70
2019-05-29T07:51:19.385Z,3.17
2019-05-29T07:53:49.055Z,3.03
2019-05-29T07:56:23.049Z,3.30
2019-05-29T07:59:01.647Z,2.90
2019-05-29T08:01:21.350Z,3.30
2019-05-29T08:03:50.875Z,3.47
2019-05-29T08:06:20.414Z,3.30
2019-05-29T08:08:49.962Z,2.63
2019-05-29T08:11:19.552Z,2.93
2019-05-29T08:13:50.048Z,2.90
2019-05-29T08:16:19.890Z,3.07
2019-05-29T08:18:52.726Z,2.90
2019-05-29T08:21:20.631Z,3.00
2019-05-29T08:23:50.751Z,2.63
2019-05-29T08:26:21.464Z,2.83
2019-05-29T08:28:51.279Z,3.20
2019-05-29T08:31:20.970Z,2.17
2019-05-29T08:33:51.238Z,3.40
2019-05-29T08:36:21.440Z,3.43
2019-05-29T08:38:51.737Z,3.00
2019-05-29T08:41:21.579Z,2.77
2019-05-29T08:43:51.177Z,2.90
2019-05-29T08:46:20.670Z,3.10
2019-05-29T08:48:50.252Z,2.60
2019-05-29T08:51:20.172Z,2.90
2019-05-29T08:53:52.147Z,2.73
2019-05-29T08:56:21.062Z,2.70
2019-05-29T08:58:50.781Z,2.53
2019-05-29T09:01:20.389Z,2.80
2019-05-29T09:03:51.204Z,2.80
2019-05-29T09:06:21.325Z,2.43
2019-05-29T09:08:54.474Z,2.77
2019-05-29T09:11:23.113Z,3.10
2019-05-29T09:13:52.632Z,2.53
2019-05-29T09:16:22.171Z,2.90
2019-05-29T09:18:51.697Z,2.83
2019-05-29T09:21:21.178Z,2.30
2019-05-29T09:23:50.693Z,2.40
2019-05-29T09:26:23.921Z,2.87
2019-05-29T09:28:51.583Z,2.40
2019-05-29T09:31:22.176Z,2.77
2019-05-29T09:33:51.791Z,3.20
2019-05-29T09:36:22.618Z,2.90
2019-05-29T09:38:52.470Z,4.20
2019-05-29T09:41:23.591Z,3.53
2019-05-29T09:43:59.302Z,3.30
2019-05-29T09:46:25.747Z,2.93
2019-05-29T09:48:55.369Z,3.07
2019-05-29T09:51:24.884Z,3.47
2019-05-29T09:53:55.854Z,3.27
2019-05-29T09:56:25.835Z,2.93
2019-05-29T09:58:56.599Z,2.77
2019-05-29T10:01:26.655Z,2.83
2019-05-29T10:03:57.539Z,2.70
2019-05-29T10:06:27.393Z,2.87
2019-05-29T10:08:58.016Z,3.00
2019-05-29T10:11:27.678Z,3.50
2019-05-29T10:13:58.628Z,2.63
2019-05-29T10:16:28.408Z,2.80
2019-05-29T10:18:59.758Z,3.03
2019-05-29T10:21:39.904Z,2.60
2019-05-29T10:24:01.935Z,2.70
2019-05-29T10:26:31.831Z,2.90
2019-05-29T10:31:33.035Z,2.57
2019-05-29T10:32:52.797Z,2.80
2019-05-29T10:34:02.554Z,3.30
2019-05-29T10:36:32.184Z,2.80
2019-05-29T10:39:02.030Z,2.80
2019-05-29T10:41:31.604Z,2.60
2019-05-29T10:44:01.135Z,3.03
2019-05-29T10:46:30.627Z,2.90
2019-05-29T10:49:04.432Z,3.13
2019-05-29T10:51:31.824Z,3.07
2019-05-29T10:54:01.336Z,3.40
2019-05-29T10:56:31.034Z,3.70
2019-05-29T10:59:00.541Z,3.33
2019-05-29T11:01:30.197Z,3.40
2019-05-29T11:03:59.749Z,3.10
2019-05-29T11:06:29.253Z,3.63
2019-05-29T11:08:58.809Z,3.40
2019-05-29T11:11:29.102Z,3.50
2019-05-29T11:13:58.612Z,3.63
2019-05-29T11:16:28.213Z,3.77
2019-05-29T11:18:57.778Z,4.43
2019-05-29T11:21:27.374Z,3.90
2019-05-29T11:23:58.244Z,4.10
2019-05-29T11:26:27.990Z,3.40
2019-05-29T11:28:58.747Z,4.60
2019-05-29T11:31:28.609Z,4.50
2019-05-29T11:33:59.249Z,4.57
2019-05-29T11:36:28.908Z,3.80
2019-05-29T11:39:03.203Z,4.37
2019-05-29T11:41:29.753Z,5.00
2019-05-29T11:43:59.556Z,4.17
2019-05-29T11:46:29.311Z,4.43
2019-05-29T11:48:59.403Z,3.80
2019-05-29T11:51:28.996Z,4.10
2019-05-29T11:53:59.586Z,4.20
2019-05-29T11:56:29.239Z,3.63
2019-05-29T11:58:59.068Z,3.00
2019-05-29T12:01:28.949Z,3.70
2019-05-29T12:04:18.480Z,4.13
2019-05-29T12:06:30.035Z,3.43
2019-05-29T12:08:59.895Z,3.73
2019-05-29T12:11:29.543Z,4.23
2019-05-29T12:14:00.497Z,3.77
2019-05-29T12:16:30.518Z,3.53
2019-05-29T12:19:00.442Z,4.13
2019-05-29T12:21:30.430Z,3.50
2019-05-29T12:24:00.294Z,3.83
2019-05-29T12:26:29.964Z,3.73
2019-05-29T12:29:08.415Z,3.70
2019-05-29T12:31:30.717Z,3.60
2019-05-29T12:34:13.195Z,2.90
2019-05-29T12:36:31.483Z,4.60
2019-05-29T12:39:02.193Z,3.53
2019-05-29T12:41:32.248Z,4.37
2019-05-29T12:44:01.785Z,3.60
2019-05-29T12:46:31.409Z,3.87
2019-05-29T12:49:01.728Z,3.20
2019-05-29T12:51:31.482Z,3.40
2019-05-29T12:54:02.495Z,3.30
2019-05-29T12:56:32.019Z,3.27
2019-05-29T12:59:02.702Z,3.03
2019-05-29T13:01:32.472Z,3.47
2019-05-29T13:04:02.436Z,3.47
2019-05-29T13:06:32.438Z,3.00
2019-05-29T13:09:02.663Z,2.90
2019-05-29T13:11:32.220Z,3.37
2019-05-29T13:14:02.721Z,2.70
2019-05-29T13:16:32.413Z,3.00
2019-05-29T13:19:03.299Z,3.60
2019-05-29T13:21:33.246Z,3.80
2019-05-29T13:24:04.027Z,3.50
2019-05-29T13:26:34.007Z,3.63
2019-05-29T13:29:04.231Z,3.67
2019-05-29T13:31:33.919Z,3.50
2019-05-29T13:34:04.408Z,3.23
2019-05-29T13:36:34.245Z,2.60
2019-05-29T13:39:06.431Z,2.70
2019-05-29T13:41:36.231Z,2.80
2019-05-29T13:44:06.934Z,3.73
2019-05-29T13:46:36.656Z,3.60
2019-05-29T13:49:07.152Z,3.00
2019-05-29T13:51:38.037Z,3.13
2019-05-29T13:54:13.476Z,3.13
2019-05-29T13:56:39.783Z,2.73
2019-05-29T13:59:10.313Z,2.77
2019-05-29T14:01:39.838Z,2.80
2019-05-29T14:04:09.328Z,3.03
2019-05-29T14:06:39.397Z,3.37
2019-05-29T14:09:09.928Z,3.00
2019-05-29T14:11:39.957Z,3.07
2019-05-29T14:14:12.937Z,2.50
2019-05-29T14:16:40.754Z,3.60
2019-05-29T14:19:10.261Z,3.17
2019-05-29T14:21:39.764Z,2.80
2019-05-29T14:24:27.393Z,3.17
2019-05-29T14:26:40.579Z,2.90
2019-05-29T14:29:10.223Z,3.17
2019-05-29T14:31:39.724Z,3.00
2019-05-29T14:34:09.596Z,3.17
2019-05-29T14:36:39.302Z,2.73
2019-05-29T14:39:10.008Z,2.80
2019-05-29T14:41:39.630Z,2.50
2019-05-29T14:44:09.965Z,2.57
2019-05-29T14:46:39.617Z,2.97
2019-05-29T14:49:10.477Z,2.50
2019-05-29T14:51:40.393Z,3.00
2019-05-29T14:54:11.009Z,2.60
2019-05-29T14:56:41.253Z,2.70
2019-05-29T14:59:13.450Z,2.73
2019-05-29T15:01:43.096Z,2.80
2019-05-29T15:04:14.445Z,2.20
2019-05-29T15:06:43.817Z,2.77
2019-05-29T15:09:13.846Z,2.27
2019-05-29T15:11:43.479Z,2.50
2019-05-29T15:14:14.452Z,2.50
2019-05-29T15:16:44.006Z,2.70
2019-05-29T15:19:13.616Z,3.47
2019-05-29T15:21:44.139Z,2.90
2019-05-29T15:24:13.708Z,3.50
2019-05-29T15:26:43.346Z,2.90
2019-05-29T15:29:15.116Z,4.00
2019-05-29T15:31:44.975Z,3.30
2019-05-29T15:34:14.579Z,3.53
2019-05-29T15:36:44.134Z,3.23
2019-05-29T15:39:14.671Z,3.20
2019-05-29T15:41:44.292Z,2.60
2019-05-29T15:44:15.050Z,2.70
2019-05-29T15:46:44.660Z,2.67
2019-05-29T15:49:15.230Z,2.70
2019-05-29T15:51:44.864Z,2.53
2019-05-29T15:54:15.283Z,2.70
2019-05-29T15:56:44.999Z,2.70
2019-05-29T15:59:16.579Z,2.50
2019-05-29T16:01:45.718Z,2.73
2019-05-29T16:04:15.793Z,2.70
2019-05-29T16:06:45.471Z,2.70
2019-05-29T16:09:16.269Z,2.60
2019-05-29T16:11:45.970Z,2.63
2019-05-29T16:14:15.472Z,2.80
2019-05-29T16:16:46.077Z,2.30
2019-05-29T16:19:16.275Z,2.70
2019-05-29T16:21:45.892Z,2.77
2019-05-29T16:24:16.733Z,2.80
2019-05-29T16:26:47.405Z,2.87
2019-05-29T16:29:18.204Z,2.20
2019-05-29T16:31:48.188Z,2.83
2019-05-29T16:34:18.886Z,2.73
2019-05-29T16:36:49.169Z,3.30
2019-05-29T16:39:19.680Z,3.10
2019-05-29T16:41:50.048Z,3.07
2019-05-29T16:44:24.329Z,3.20
2019-05-29T16:46:50.972Z,2.40
2019-05-29T16:49:21.222Z,2.83
2019-05-29T16:51:51.069Z,2.37
2019-05-29T16:54:21.037Z,2.53
2019-05-29T16:56:50.676Z,2.37
2019-05-29T16:59:21.357Z,2.50
2019-05-29T17:01:50.948Z,2.17
2019-05-29T17:04:21.518Z,2.80
2019-05-29T17:06:51.267Z,2.13
2019-05-29T17:09:20.869Z,2.77
2019-05-29T17:11:50.630Z,2.90
2019-05-29T17:14:20.929Z,3.07
2019-05-29T17:16:50.991Z,3.10
2019-05-29T17:19:20.726Z,2.33
2019-05-29T17:21:50.684Z,2.27
2019-05-29T17:24:20.911Z,2.50
2019-05-29T17:26:50.521Z,2.80
2019-05-29T17:29:20.799Z,3.07
2019-05-29T17:31:50.358Z,2.70
2019-05-29T17:34:21.024Z,2.90
2019-05-29T17:36:50.722Z,2.50
2019-05-29T17:39:21.381Z,2.70
2019-05-29T17:41:51.069Z,2.33
2019-05-29T17:44:21.417Z,3.50
2019-05-29T17:46:50.972Z,2.77
2019-05-29T17:49:24.933Z,3.20
2019-05-29T17:51:51.759Z,2.70
2019-05-29T17:54:21.834Z,3.17
2019-05-29T17:56:51.517Z,2.50
2019-05-29T17:59:22.111Z,2.90
2019-05-29T18:01:51.837Z,3.00
2019-05-29T18:04:22.620Z,2.70
2019-05-29T18:06:52.327Z,3.33
2019-05-29T18:09:24.680Z,2.40
2019-05-29T18:11:53.175Z,2.43
2019-05-29T18:14:23.296Z,2.50
2019-05-29T18:16:52.911Z,2.37
2019-05-29T18:19:23.724Z,2.40
2019-05-29T18:21:53.505Z,2.40
2019-05-29T18:24:23.762Z,2.73
2019-05-29T18:26:53.468Z,2.20
2019-05-29T18:29:24.238Z,2.43
2019-05-29T18:31:54.068Z,1.80
2019-05-29T18:34:25.111Z,2.50
2019-05-29T18:36:55.264Z,2.43
2019-05-29T18:39:24.909Z,2.37
2019-05-29T18:41:54.397Z,2.80
2019-05-29T18:44:24.827Z,2.97
2019-05-29T18:46:54.490Z,2.70
2019-05-29T18:49:24.310Z,2.90
2019-05-29T18:51:53.938Z,3.07
2019-05-29T18:54:23.807Z,3.97
2019-05-29T18:57:13.926Z,3.27
2019-05-29T18:59:25.473Z,3.50
2019-05-29T19:01:55.300Z,3.40
2019-05-29T19:04:25.540Z,3.30
2019-05-29T19:06:55.225Z,2.60
2019-05-29T19:09:25.676Z,2.30
2019-05-29T19:11:55.412Z,2.70
2019-05-29T19:14:25.814Z,2.23
2019-05-29T19:16:55.467Z,2.17
2019-05-29T19:19:26.071Z,2.40
2019-05-29T19:21:55.823Z,1.97
2019-05-29T19:24:26.482Z,2.70
2019-05-29T19:26:56.164Z,3.00
2019-05-29T19:29:26.859Z,2.50
2019-05-29T19:31:56.643Z,2.27
2019-05-29T19:34:27.286Z,2.20
2019-05-29T19:36:57.190Z,2.37
2019-05-29T19:39:27.905Z,2.70
2019-05-29T19:41:57.856Z,2.83
2019-05-29T19:44:28.354Z,2.50
2019-05-29T19:46:58.161Z,2.47
2019-05-29T19:49:28.672Z,2.80
2019-05-29T19:51:58.642Z,2.90
2019-05-29T19:54:29.368Z,2.97
2019-05-29T19:56:59.103Z,2.60
2019-05-29T19:59:30.248Z,2.80
2019-05-29T20:01:59.742Z,2.70
2019-05-29T20:04:30.351Z,2.80
2019-05-29T20:07:00.040Z,2.60
2019-05-29T20:09:29.540Z,2.93
2019-05-29T20:11:59.083Z,2.80
2019-05-29T20:14:29.556Z,3.00
2019-05-29T20:16:59.176Z,3.60
2019-05-29T20:19:33.823Z,3.57
2019-05-29T20:21:59.882Z,3.30
2019-05-29T20:24:30.649Z,3.27
2019-05-29T20:27:00.206Z,4.07
2019-05-29T20:29:30.292Z,3.77
2019-05-29T20:32:00.047Z,4.37
2019-05-29T20:34:30.721Z,4.13
2019-05-29T20:37:00.385Z,4.70
2019-05-29T20:39:30.256Z,4.80
2019-05-29T20:42:00.081Z,3.93
2019-05-29T20:44:30.569Z,4.30
2019-05-29T20:47:00.169Z,5.07
2019-05-29T20:49:29.767Z,4.70
2019-05-29T20:51:59.261Z,5.90
2019-05-29T20:54:28.829Z,4.70
2019-05-29T20:56:59.968Z,4.50
2019-05-29T20:59:31.730Z,4.53
2019-05-29T21:02:01.879Z,4.30
2019-05-29T21:04:32.932Z,4.27
2019-05-29T21:07:02.664Z,4.57
2019-05-29T21:09:32.918Z,5.13
2019-05-29T21:12:02.573Z,5.10
2019-05-29T21:14:33.418Z,5.33
2019-05-29T21:17:03.596Z,4.40
2019-05-29T21:19:33.999Z,5.10
2019-05-29T21:22:03.721Z,4.50
2019-05-29T21:24:34.447Z,4.70
2019-05-29T21:27:04.326Z,5.00
2019-05-29T21:29:35.103Z,5.07
2019-05-29T21:32:04.918Z,4.70
2019-05-29T21:34:35.713Z,4.93
2019-05-29T21:37:05.522Z,5.00
2019-05-29T21:39:36.246Z,4.97
2019-05-29T21:42:05.899Z,5.27
2019-05-29T21:44:36.553Z,5.17
2019-05-29T21:47:06.188Z,5.50
2019-05-29T21:49:37.177Z,5.23
2019-05-29T21:52:06.953Z,5.73
2019-05-29T21:54:37.316Z,6.50
2019-05-29T21:57:06.967Z,5.40
2019-05-29T21:59:37.581Z,6.30
2019-05-29T22:02:08.364Z,6.70
2019-05-29T22:04:38.384Z,6.30
2019-05-29T22:07:08.105Z,6.73
2019-05-29T22:09:37.610Z,6.77
2019-05-29T22:12:07.229Z,6.37
2019-05-29T22:14:36.726Z,6.77
2019-05-29T22:17:06.239Z,6.50
2019-05-29T22:19:35.801Z,7.03
2019-05-29T22:22:05.320Z,6.70
2019-05-29T22:24:34.842Z,6.53
2019-05-29T22:27:04.549Z,7.03
2019-05-29T22:29:34.141Z,6.30
2019-05-29T22:32:03.753Z,6.77
2019-05-29T22:34:33.357Z,6.70
2019-05-29T22:37:02.857Z,6.10
2019-05-29T22:39:32.508Z,6.70
2019-05-29T22:42:02.454Z,7.23
2019-05-29T22:44:32.076Z,6.63
2019-05-29T22:47:02.050Z,7.23
2019-05-29T22:49:31.713Z,8.30
2019-05-29T22:52:02.241Z,8.57
2019-05-29T22:54:31.832Z,7.60
2019-05-29T22:57:02.130Z,7.97
2019-05-29T22:59:32.448Z,7.97
2019-05-29T23:02:02.612Z,7.90
2019-05-29T23:04:32.254Z,9.33
2019-05-29T23:07:02.571Z,8.10
2019-05-29T23:09:32.424Z,8.90
2019-05-29T23:12:02.533Z,8.37
2019-05-29T23:14:32.045Z,7.87
2019-05-29T23:17:02.640Z,7.90
2019-05-29T23:19:32.273Z,9.03
2019-05-29T23:22:02.838Z,8.50
2019-05-29T23:24:32.672Z,8.60
2019-05-29T23:27:03.030Z,8.87
2019-05-29T23:29:47.961Z,8.77
2019-05-29T23:32:04.324Z,8.10
2019-05-29T23:34:33.818Z,8.97
2019-05-29T23:37:03.900Z,8.80
2019-05-29T23:39:33.398Z,7.90
2019-05-29T23:42:03.644Z,8.10
2019-05-29T23:44:33.368Z,8.47
2019-05-29T23:47:04.113Z,8.00
2019-05-29T23:49:33.968Z,7.60
2019-05-29T23:52:04.884Z,7.93
2019-05-29T23:54:34.700Z,7.97
2019-05-29T23:57:04.551Z,7.73
2019-05-29T23:59:34.135Z,7.40
